Terminal Aerodrome Forecast
Issued by NWS Wilmington, NC

Home | Current Version | Previous Version | Text Only | Print | Product List | Glossary On
Versions: 1 2 3 4 5 6 7 8 9 10 11 12 13 14 15 16 17 18 19 20
685
FTUS42 KILM 291120
TAFMYR
TAF
KMYR 291120Z 2912/3012 20008KT P6SM BKN010 OVC021
     FM291300 20009KT P6SM SCT025
     FM300400 18009KT P6SM BKN015
     FM301000 19008KT P6SM BKN050=

USA.gov is the U.S. government's official web portal to all federal, state and local government web resources and services.